EDT,Max TemperatureF,Mean TemperatureF,Min TemperatureF,Max Dew PointF,MeanDew PointF,Min DewpointF,Max Humidity, Mean Humidity, Min Humidity, Max Sea Level PressureIn, Mean Sea Level PressureIn, Min Sea Level PressureIn, Max VisibilityMiles, Mean VisibilityMiles, Min VisibilityMiles, Max Wind SpeedMPH, Mean Wind SpeedMPH, Max Gust SpeedMPH,PrecipitationIn, CloudCover, Events, WindDirDegrees
2013-8-1,86,78,70,74,72,69,100,87,63,30.02,29.94,29.88,10,8,1,12,5,25,0.23,6,Rain-Thunderstorm,232
2013-8-2,87,78,69,74,70,68,100,89,59,30.02,29.98,29.92,10,6,0,7,2,,0.00,4,Fog,204
2013-8-3,89,80,73,75,73,69,100,84,57,30.05,29.99,29.94,10,6,2,10,5,,0.00,2,,231
2013-8-4,87,78,69,71,69,66,97,78,55,30.01,29.96,29.93,10,9,5,10,4,,0.00,2,,15
2013-8-5,84,76,68,69,67,64,97,73,51,30.07,30.02,29.98,10,9,7,10,3,,0.00,2,,168
2013-8-6,75,72,68,71,68,64,100,92,73,30.10,30.05,29.97,10,7,1,9,5,,0.85,7,Rain,145
2013-8-7,84,76,70,72,70,68,100,85,63,30.12,30.06,30.01,10,8,2,9,2,,0.00,6,,184
2013-8-8,86,80,73,75,73,70,96,85,67,30.09,30.04,29.99,10,9,2,8,4,,0.11,5,Rain,205
2013-8-9,89,80,73,79,74,70,100,84,67,30.11,30.05,30.00,10,8,1,12,6,18,0.14,3,Rain-Thunderstorm,215
2013-8-10,91,82,73,76,74,72,100,84,59,30.12,30.07,30.03,10,9,5,10,6,20,0.02,1,Thunderstorm,243
2013-8-11,91,81,71,77,73,71,100,82,57,30.12,30.08,30.02,10,9,2,12,4,16,0.09,1,Rain-Thunderstorm,250
2013-8-12,91,81,71,76,72,68,100,79,52,30.06,30.01,29.94,10,10,6,12,3,21,0.00,1,Thunderstorm,245
2013-8-13,89,80,71,77,72,70,100,82,59,29.94,29.88,29.80,10,8,2,17,7,28,0.25,3,Rain-Thunderstorm,252
2013-8-14,77,72,66,71,65,61,100,79,60,30.07,29.96,29.86,10,10,7,9,3,,0.00,4,,30
2013-8-15,75,68,62,63,59,55,90,74,55,30.15,30.10,30.06,10,10,8,9,4,18,0.00,1,,72
2013-8-16,70,66,62,64,60,57,93,85,73,30.17,30.13,30.08,10,9,5,7,3,,0.13,6,Rain,51
2013-8-17,66,64,62,66,63,61,100,98,93,30.20,30.16,30.13,10,5,1,10,4,,0.97,8,Rain,32
2013-8-18,82,74,66,72,68,66,100,90,66,30.24,30.17,30.12,10,7,0,6,1,,0.02,7,Fog-Rain,327
2013-8-19,78,72,66,72,70,67,100,92,76,30.21,30.16,30.09,10,8,0,9,4,,0.47,6,Fog-Rain,30
2013-8-20,82,72,64,73,68,65,100,94,74,30.22,30.16,30.11,10,5,0,5,0,,0.00,2,Fog-Rain,62
2013-8-21,84,76,69,74,71,69,100,95,69,30.27,30.20,30.12,10,5,0,20,1,33,0.64,4,Fog-Rain-Thunderstorm,301
2013-8-22,88,78,69,73,71,69,100,87,57,30.19,30.11,30.01,10,8,1,9,4,,0.00,2,,255
2013-8-23,88,78,68,73,70,67,100,89,55,30.08,30.03,29.96,10,7,0,9,2,,0.00,3,Fog-Rain,304
2013-8-24,82,72,64,69,63,59,91,77,47,30.28,30.18,30.06,10,10,8,9,6,,0.00,4,,40
2013-8-25,82,70,59,64,61,58,100,78,48,30.39,30.32,30.28,10,10,5,8,2,,0.00,1,,63
2013-8-26,82,68,55,65,59,55,100,88,50,30.32,30.27,30.14,10,6,0,6,1,,0.00,0,Fog,177
2013-8-27,88,75,63,71,67,61,97,77,55,30.15,30.06,30.00,10,9,7,7,5,,0.00,1,,261
2013-8-28,89,78,68,73,70,67,100,80,57,30.03,29.97,29.93,9,6,2,9,4,,0.00,0,,244
2013-8-29,91,82,73,76,73,71,96,80,50,29.96,29.92,29.87,10,6,1,9,6,20,0.22,4,Rain-Thunderstorm,281
2013-8-30,86,78,71,71,69,65,93,77,51,30.08,30.00,29.94,10,9,7,6,2,,0.00,4,,111
2013-8-31,88,76,66,74,71,67,100,84,63,30.00,29.94,29.86,10,9,5,9,5,,0.00,2,,217